createdAt,value
2023-03-17T00:02:07.474Z,52.80
2023-03-17T00:04:35.838Z,53.12
2023-03-17T00:07:04.092Z,53.67
2023-03-17T00:09:32.835Z,54.06
2023-03-17T00:12:01.037Z,53.86
2023-03-17T00:14:30.883Z,54.20
2023-03-17T00:16:58.963Z,53.91
2023-03-17T00:19:30.825Z,54.12
2023-03-17T00:21:59.152Z,54.03
2023-03-17T00:24:28.336Z,54.30
2023-03-17T00:26:56.535Z,53.98
2023-03-17T00:29:25.359Z,54.23
2023-03-17T00:31:55.210Z,54.07
2023-03-17T00:34:24.326Z,54.37
2023-03-17T00:36:52.432Z,54.68
2023-03-17T00:39:20.827Z,54.38
2023-03-17T00:41:49.053Z,55.11
2023-03-17T00:44:17.412Z,55.45
2023-03-17T00:46:46.356Z,55.89
2023-03-17T00:51:46.392Z,55.40
2023-03-17T00:54:16.426Z,55.42
2023-03-17T00:56:45.501Z,55.42
2023-03-17T00:59:20.698Z,55.28
2023-03-17T01:01:49.797Z,55.11
2023-03-17T01:04:19.933Z,55.72
2023-03-17T01:06:49.493Z,55.54
2023-03-17T01:09:21.445Z,55.29
2023-03-17T01:11:50.067Z,55.46
2023-03-17T01:14:18.440Z,55.33
2023-03-17T01:16:48.077Z,55.32
2023-03-17T01:19:16.785Z,55.32
2023-03-17T01:21:47.954Z,55.37
2023-03-17T01:24:16.088Z,55.34
2023-03-17T01:26:44.590Z,55.50
2023-03-17T01:29:13.816Z,55.35
2023-03-17T01:31:42.299Z,55.26
2023-03-17T01:34:11.493Z,55.46
2023-03-17T01:36:41.304Z,55.01
2023-03-17T01:39:10.944Z,54.93
2023-03-17T01:41:40.027Z,54.40
2023-03-17T01:44:10.834Z,54.41
2023-03-17T01:46:39.150Z,53.98
2023-03-17T01:49:11.435Z,53.32
2023-03-17T01:51:44.122Z,53.27
2023-03-17T01:54:17.698Z,53.31
2023-03-17T01:56:46.693Z,52.76
2023-03-17T01:59:19.246Z,52.38
2023-03-17T02:01:49.621Z,52.53
2023-03-17T02:04:17.943Z,52.35
2023-03-17T02:06:57.360Z,52.60
2023-03-17T02:09:29.150Z,52.79
2023-03-17T02:11:57.795Z,52.94
2023-03-17T02:14:26.434Z,52.96
2023-03-17T02:16:54.782Z,53.51
2023-03-17T02:19:23.086Z,53.68
2023-03-17T02:21:54.169Z,53.42
2023-03-17T02:24:27.441Z,53.98
2023-03-17T02:26:59.403Z,53.76
2023-03-17T02:29:27.685Z,53.99
2023-03-17T02:31:55.973Z,53.98
2023-03-17T02:34:24.022Z,54.01
2023-03-17T02:36:53.814Z,54.33
2023-03-17T02:39:22.240Z,54.27
2023-03-17T02:41:50.584Z,54.58
2023-03-17T02:44:18.873Z,55.01
2023-03-17T02:46:47.278Z,55.12
2023-03-17T02:49:15.867Z,55.34
2023-03-17T02:51:45.100Z,55.96
2023-03-17T02:54:14.741Z,56.12
2023-03-17T02:56:43.075Z,56.08
2023-03-17T02:59:11.178Z,56.64
2023-03-17T03:01:39.782Z,57.16
2023-03-17T03:04:08.623Z,57.39
2023-03-17T03:06:37.434Z,57.75
2023-03-17T03:09:05.650Z,57.78
2023-03-17T03:11:35.960Z,58.06
2023-03-17T03:14:04.078Z,58.38
2023-03-17T03:16:32.499Z,58.82
2023-03-17T03:19:00.764Z,58.94
2023-03-17T03:21:29.170Z,59.59
2023-03-17T03:23:57.508Z,59.91
2023-03-17T03:26:25.866Z,60.24
2023-03-17T03:28:57.314Z,60.54
2023-03-17T03:31:26.038Z,61.29
2023-03-17T03:33:54.148Z,61.96
2023-03-17T03:36:23.282Z,62.24
2023-03-17T03:38:51.629Z,62.43
2023-03-17T03:41:19.908Z,62.73
2023-03-17T03:43:47.943Z,61.96
2023-03-17T03:46:17.588Z,61.82
2023-03-17T03:48:45.678Z,62.40
2023-03-17T03:51:13.980Z,61.57
2023-03-17T03:53:42.033Z,61.70
2023-03-17T03:56:10.380Z,61.60
2023-03-17T03:58:38.534Z,61.60
2023-03-17T04:01:07.347Z,62.05
2023-03-17T04:03:37.436Z,61.99
2023-03-17T04:06:06.461Z,62.07
2023-03-17T04:08:34.627Z,62.71
2023-03-17T04:11:02.897Z,62.78
2023-03-17T04:13:30.955Z,63.08
2023-03-17T04:15:59.372Z,63.45
2023-03-17T04:18:27.498Z,65.49
2023-03-17T04:20:57.144Z,66.93
2023-03-17T04:23:25.322Z,67.85
2023-03-17T04:25:53.939Z,67.69
2023-03-17T04:28:22.433Z,67.95
2023-03-17T04:30:50.978Z,68.55
2023-03-17T04:33:20.201Z,68.98
2023-03-17T04:35:48.558Z,68.97
2023-03-17T04:38:18.107Z,68.50
2023-03-17T04:40:46.847Z,68.05
2023-03-17T04:43:14.865Z,66.74
2023-03-17T04:45:43.262Z,67.00
2023-03-17T04:48:11.348Z,67.63
2023-03-17T04:50:39.773Z,68.05
2023-03-17T04:53:07.907Z,67.93
2023-03-17T04:55:38.739Z,68.09
2023-03-17T04:58:06.780Z,67.83
2023-03-17T05:00:38.671Z,68.30
2023-03-17T05:03:20.049Z,68.69
2023-03-17T05:05:54.445Z,69.41
2023-03-17T05:08:22.436Z,68.75
2023-03-17T05:10:52.563Z,69.30
2023-03-17T05:13:20.662Z,69.63
2023-03-17T05:15:49.189Z,69.49
2023-03-17T05:18:17.404Z,70.36
2023-03-17T05:20:46.174Z,70.92
2023-03-17T05:23:14.493Z,71.05
2023-03-17T05:25:42.908Z,71.34
2023-03-17T05:28:12.455Z,72.60
2023-03-17T05:30:40.803Z,72.84
2023-03-17T05:33:08.933Z,73.22
2023-03-17T05:35:37.374Z,73.97
2023-03-17T05:38:05.427Z,73.93
2023-03-17T05:40:34.018Z,73.72
2023-03-17T05:43:02.387Z,73.34
2023-03-17T05:45:33.290Z,73.04
2023-03-17T05:48:01.374Z,72.25
2023-03-17T05:50:29.875Z,71.90
2023-03-17T05:52:58.097Z,71.26
2023-03-17T05:55:26.682Z,72.15
2023-03-17T05:57:54.747Z,72.79
2023-03-17T06:00:23.577Z,73.59
2023-03-17T06:02:53.003Z,73.58
2023-03-17T06:05:21.426Z,73.83
2023-03-17T06:07:54.926Z,73.89
2023-03-17T06:10:24.998Z,73.93
2023-03-17T06:12:53.056Z,72.65
2023-03-17T06:15:21.832Z,72.46
2023-03-17T06:17:50.172Z,72.65
2023-03-17T06:20:20.202Z,73.14
2023-03-17T06:23:03.372Z,73.31
2023-03-17T06:25:33.411Z,73.68
2023-03-17T06:28:03.699Z,74.14
2023-03-17T06:30:33.055Z,74.28
2023-03-17T06:33:01.546Z,74.61
2023-03-17T06:35:32.113Z,74.07
2023-03-17T06:38:01.064Z,73.85
2023-03-17T06:40:29.800Z,73.48
2023-03-17T06:42:58.049Z,73.30
2023-03-17T06:45:26.694Z,72.70
2023-03-17T06:47:54.711Z,72.54
2023-03-17T06:50:23.179Z,71.07
2023-03-17T06:52:52.640Z,70.54
2023-03-17T06:55:21.462Z,70.02
2023-03-17T06:57:51.168Z,69.93
2023-03-17T07:00:20.847Z,70.06
2023-03-17T07:02:49.385Z,69.87
2023-03-17T07:05:18.048Z,69.75
2023-03-17T07:07:46.549Z,69.58
2023-03-17T07:10:17.159Z,68.90
2023-03-17T07:12:46.019Z,69.08
2023-03-17T07:15:14.396Z,69.08
2023-03-17T07:17:42.892Z,68.73
2023-03-17T07:20:12.114Z,66.88
2023-03-17T07:22:40.364Z,66.64
2023-03-17T07:25:09.561Z,66.03
2023-03-17T07:27:39.123Z,69.94
2023-03-17T07:30:08.798Z,69.10
2023-03-17T07:32:37.477Z,68.33
2023-03-17T07:35:07.252Z,66.44
2023-03-17T07:37:35.401Z,65.72
2023-03-17T07:40:03.700Z,64.51
2023-03-17T07:42:32.166Z,64.65
2023-03-17T07:45:03.118Z,64.60
2023-03-17T07:47:31.209Z,65.62
2023-03-17T07:49:59.643Z,65.45
2023-03-17T07:52:27.709Z,65.29
2023-03-17T07:54:56.079Z,65.95
2023-03-17T07:57:24.328Z,65.80
2023-03-17T07:59:52.683Z,66.06
2023-03-17T08:02:22.250Z,65.01
2023-03-17T08:04:51.009Z,64.46
2023-03-17T08:07:19.434Z,64.43
2023-03-17T08:09:47.885Z,65.67
2023-03-17T08:12:15.985Z,65.73
2023-03-17T08:14:44.374Z,65.87
2023-03-17T08:17:13.480Z,66.40
2023-03-17T08:19:43.587Z,66.94
2023-03-17T08:22:12.326Z,67.04
2023-03-17T08:24:42.887Z,67.93
2023-03-17T08:27:11.166Z,67.82
2023-03-17T08:29:40.292Z,66.65
2023-03-17T08:32:09.475Z,66.63
2023-03-17T08:34:38.219Z,66.06
2023-03-17T08:37:11.297Z,65.55
2023-03-17T08:39:40.250Z,65.53
2023-03-17T08:42:08.363Z,64.78
2023-03-17T08:44:37.173Z,64.39
2023-03-17T08:47:05.708Z,64.58
2023-03-17T08:49:35.978Z,63.26
2023-03-17T08:52:04.155Z,62.26
2023-03-17T08:54:35.738Z,62.66
2023-03-17T08:57:04.170Z,62.21
2023-03-17T08:59:32.672Z,61.86
2023-03-17T09:02:00.887Z,61.54
2023-03-17T09:04:29.317Z,61.48
2023-03-17T09:07:04.784Z,61.30
2023-03-17T09:09:35.505Z,60.68
2023-03-17T09:12:05.578Z,60.09
2023-03-17T09:14:42.821Z,60.49
2023-03-17T09:17:11.590Z,59.96
2023-03-17T09:19:40.393Z,58.88
2023-03-17T09:22:08.827Z,58.82
2023-03-17T09:24:38.459Z,58.42
2023-03-17T09:27:06.962Z,58.07
2023-03-17T09:29:35.656Z,57.64
2023-03-17T09:32:03.730Z,56.46
2023-03-17T09:34:32.671Z,56.19
2023-03-17T09:37:00.974Z,55.47
2023-03-17T09:39:29.365Z,55.06
2023-03-17T09:42:14.550Z,52.41
2023-03-17T09:45:02.254Z,51.02
2023-03-17T09:47:49.965Z,50.29
2023-03-17T09:50:20.861Z,49.91
2023-03-17T09:52:51.355Z,49.46
2023-03-17T09:55:25.085Z,48.99
2023-03-17T09:57:55.968Z,48.80
2023-03-17T10:00:29.050Z,48.37
2023-03-17T10:02:58.361Z,47.41
2023-03-17T10:05:28.878Z,46.74
2023-03-17T10:08:02.718Z,46.32
2023-03-17T10:10:36.690Z,45.95
2023-03-17T10:13:13.402Z,46.44
2023-03-17T10:15:47.518Z,45.82
2023-03-17T10:18:17.435Z,45.42
2023-03-17T10:20:51.636Z,45.62
2023-03-17T10:23:22.132Z,45.39
2023-03-17T10:25:50.541Z,45.79
2023-03-17T10:28:27.140Z,46.95
2023-03-17T10:31:16.630Z,46.14
2023-03-17T10:33:48.109Z,45.29
2023-03-17T10:36:17.982Z,45.70
2023-03-17T10:38:52.007Z,45.25
2023-03-17T10:41:20.555Z,44.11
2023-03-17T10:43:51.733Z,42.75
2023-03-17T10:46:23.257Z,41.19
2023-03-17T10:48:53.937Z,42.44
2023-03-17T10:51:26.912Z,43.27
2023-03-17T10:53:54.934Z,42.65
2023-03-17T10:56:25.850Z,41.28
2023-03-17T10:58:56.918Z,41.39
2023-03-17T11:01:30.231Z,41.20
2023-03-17T11:04:00.405Z,41.22
2023-03-17T11:06:36.314Z,40.83
2023-03-17T11:09:10.983Z,41.49
2023-03-17T11:11:44.623Z,41.80
2023-03-17T11:14:16.196Z,41.59
2023-03-17T11:16:53.070Z,41.47
2023-03-17T11:19:23.583Z,40.71
2023-03-17T11:21:57.107Z,40.85
2023-03-17T11:24:30.468Z,40.54
2023-03-17T11:27:01.137Z,41.78
2023-03-17T11:29:49.627Z,41.83
2023-03-17T11:32:28.169Z,41.96
2023-03-17T11:35:04.752Z,41.25
2023-03-17T11:37:46.931Z,41.73
2023-03-17T11:40:21.135Z,41.25
2023-03-17T11:42:55.927Z,41.25
2023-03-17T11:45:28.464Z,41.75
2023-03-17T11:48:03.750Z,41.69
2023-03-17T11:50:36.223Z,41.86
2023-03-17T11:53:22.603Z,41.69
2023-03-17T11:55:55.734Z,41.74
2023-03-17T11:58:29.080Z,41.80
2023-03-17T12:01:01.357Z,42.16
2023-03-17T12:03:33.282Z,42.53
2023-03-17T12:06:05.667Z,43.03
2023-03-17T12:08:38.986Z,43.18
2023-03-17T12:11:13.942Z,43.27
2023-03-17T12:14:00.484Z,43.19
2023-03-17T12:16:42.708Z,43.14
2023-03-17T12:19:24.413Z,43.47
2023-03-17T12:22:08.076Z,44.63
2023-03-17T12:24:53.567Z,44.71
2023-03-17T12:27:30.857Z,44.55
2023-03-17T12:30:08.912Z,44.25
2023-03-17T12:32:42.757Z,43.68
2023-03-17T12:35:29.261Z,43.56
2023-03-17T12:37:59.934Z,43.58
2023-03-17T12:40:33.565Z,43.15
2023-03-17T12:43:30.352Z,42.55
2023-03-17T12:46:36.590Z,42.83
2023-03-17T12:49:37.091Z,42.78
2023-03-17T12:52:14.570Z,42.96
2023-03-17T12:54:47.770Z,42.38
2023-03-17T12:57:19.462Z,42.41
2023-03-17T12:59:49.751Z,41.64
2023-03-17T13:02:24.882Z,41.54
2023-03-17T13:04:58.004Z,41.97
2023-03-17T13:07:27.967Z,41.79
2023-03-17T13:10:19.875Z,41.57
2023-03-17T13:13:08.734Z,41.89
2023-03-17T13:16:00.437Z,42.70
2023-03-17T13:18:53.331Z,43.03
2023-03-17T13:21:26.377Z,42.54
2023-03-17T13:23:57.956Z,42.88
2023-03-17T13:26:54.925Z,43.33
2023-03-17T13:29:44.235Z,43.82
2023-03-17T13:32:39.902Z,43.60
2023-03-17T13:35:16.752Z,43.36
2023-03-17T13:38:23.191Z,43.90
2023-03-17T13:41:01.309Z,43.97
2023-03-17T13:43:43.356Z,44.60
2023-03-17T13:46:28.976Z,44.95
2023-03-17T13:48:57.689Z,44.29
2023-03-17T13:51:27.232Z,44.90
2023-03-17T13:53:59.028Z,44.44
2023-03-17T13:56:30.648Z,44.02
2023-03-17T13:59:11.684Z,44.18
2023-03-17T14:01:43.003Z,44.20
2023-03-17T14:04:21.614Z,44.42
2023-03-17T14:06:53.047Z,44.47
2023-03-17T14:09:36.274Z,44.50
2023-03-17T14:12:12.167Z,44.73
2023-03-17T14:14:45.757Z,44.97
2023-03-17T14:17:16.689Z,45.28
2023-03-17T14:20:04.540Z,44.08
2023-03-17T14:23:01.511Z,45.00
2023-03-17T14:25:35.590Z,45.09
2023-03-17T14:28:09.348Z,44.32
2023-03-17T14:31:05.449Z,44.22
2023-03-17T14:33:38.892Z,44.23
2023-03-17T14:36:15.489Z,43.46
2023-03-17T14:38:48.513Z,44.21
2023-03-17T14:41:22.546Z,43.92
2023-03-17T14:43:52.247Z,44.59
2023-03-17T14:46:23.465Z,45.33
2023-03-17T14:48:57.419Z,45.33
2023-03-17T14:51:28.711Z,45.55
2023-03-17T14:54:00.302Z,45.83
2023-03-17T14:56:32.834Z,46.17
2023-03-17T14:59:06.796Z,46.72
2023-03-17T15:01:37.551Z,47.42
2023-03-17T15:04:12.515Z,47.44
2023-03-17T15:06:49.514Z,47.43
2023-03-17T15:09:25.771Z,47.50
2023-03-17T15:11:57.147Z,47.63
2023-03-17T15:14:30.962Z,48.19
2023-03-17T15:16:59.368Z,47.89
2023-03-17T15:19:30.299Z,47.67
2023-03-17T15:22:00.269Z,47.95
2023-03-17T15:24:44.021Z,48.07
2023-03-17T15:27:17.682Z,48.81
2023-03-17T15:29:47.443Z,49.25
2023-03-17T15:32:17.246Z,49.07
2023-03-17T15:34:45.795Z,49.44
2023-03-17T15:37:18.644Z,49.04
2023-03-17T15:39:47.601Z,49.03
2023-03-17T15:42:19.510Z,48.99
2023-03-17T15:44:47.984Z,49.21
2023-03-17T15:47:17.600Z,48.85
2023-03-17T15:49:46.820Z,48.91
2023-03-17T15:52:17.083Z,48.75
2023-03-17T15:54:46.153Z,48.71
2023-03-17T15:57:14.309Z,48.71
2023-03-17T15:59:44.162Z,49.09
2023-03-17T16:02:27.424Z,48.54
2023-03-17T16:04:56.226Z,48.37
2023-03-17T16:07:24.896Z,48.31
2023-03-17T16:09:53.255Z,48.61
2023-03-17T16:12:21.303Z,48.65
2023-03-17T16:14:51.541Z,49.16
2023-03-17T16:17:25.246Z,48.81
2023-03-17T16:19:55.838Z,48.54
2023-03-17T16:22:36.691Z,48.67
2023-03-17T16:25:05.887Z,49.46
2023-03-17T16:27:34.187Z,49.85
2023-03-17T16:30:04.304Z,49.67
2023-03-17T16:32:32.341Z,50.11
2023-03-17T16:35:00.584Z,50.65
2023-03-17T16:37:28.685Z,50.20
2023-03-17T16:39:58.003Z,50.09
2023-03-17T16:42:28.523Z,49.89
2023-03-17T16:44:57.639Z,50.44
2023-03-17T16:47:27.255Z,50.01
2023-03-17T16:49:55.690Z,50.21
2023-03-17T16:52:23.821Z,50.40
2023-03-17T16:54:52.049Z,50.49
2023-03-17T16:57:20.164Z,50.78
2023-03-17T16:59:48.560Z,50.73
2023-03-17T17:02:17.783Z,51.73
2023-03-17T17:04:47.587Z,51.28
2023-03-17T17:07:15.876Z,51.25
2023-03-17T17:09:44.625Z,51.27
2023-03-17T17:12:12.681Z,51.39
2023-03-17T17:14:41.441Z,51.67
2023-03-17T17:17:10.686Z,52.30
2023-03-17T17:19:38.996Z,52.35
2023-03-17T17:22:08.637Z,52.91
2023-03-17T17:24:37.096Z,53.39
2023-03-17T17:27:05.576Z,54.15
2023-03-17T17:29:33.948Z,54.88
2023-03-17T17:32:02.156Z,55.21
2023-03-17T17:34:30.451Z,55.46
2023-03-17T17:36:58.673Z,56.40
2023-03-17T17:39:28.302Z,56.32
2023-03-17T17:41:56.339Z,56.57
2023-03-17T17:44:24.660Z,56.99
2023-03-17T17:46:52.841Z,56.87
2023-03-17T17:49:21.291Z,56.70
2023-03-17T17:51:49.403Z,56.58
2023-03-17T17:54:17.725Z,57.04
2023-03-17T17:56:48.310Z,56.92
2023-03-17T17:59:16.724Z,57.01
2023-03-17T18:01:44.868Z,57.06
2023-03-17T18:04:13.640Z,56.56
2023-03-17T18:06:41.782Z,56.91
2023-03-17T18:09:10.203Z,56.90
2023-03-17T18:11:40.190Z,56.99
2023-03-17T18:14:10.348Z,57.12
2023-03-17T18:16:38.983Z,57.74
2023-03-17T18:19:09.594Z,58.32
2023-03-17T18:21:37.710Z,58.24
2023-03-17T18:24:06.739Z,58.70
2023-03-17T18:26:35.052Z,58.87
2023-03-17T18:29:03.602Z,58.75
2023-03-17T18:31:35.971Z,58.49
2023-03-17T18:34:07.168Z,58.76
2023-03-17T18:36:35.305Z,57.91
2023-03-17T18:39:04.048Z,57.57
2023-03-17T18:41:33.034Z,57.89
2023-03-17T18:44:02.333Z,57.41
2023-03-17T18:46:30.418Z,57.30
2023-03-17T18:49:00.380Z,56.95
2023-03-17T18:51:28.410Z,57.32
2023-03-17T18:53:56.824Z,57.81
2023-03-17T18:56:28.936Z,58.98
2023-03-17T18:58:57.798Z,60.26
2023-03-17T19:01:27.126Z,61.42
2023-03-17T19:03:55.536Z,62.28
2023-03-17T19:06:25.234Z,61.99
2023-03-17T19:08:54.173Z,61.93
2023-03-17T19:11:22.337Z,62.17
2023-03-17T19:13:52.437Z,62.38
2023-03-17T19:16:20.663Z,62.16
2023-03-17T19:18:49.053Z,62.26
2023-03-17T19:21:17.217Z,62.40
2023-03-17T19:23:49.578Z,61.99
2023-03-17T19:26:17.975Z,61.93
2023-03-17T19:28:46.986Z,62.17
2023-03-17T19:31:15.176Z,62.05
2023-03-17T19:33:43.556Z,61.72
2023-03-17T19:36:13.993Z,61.85
2023-03-17T19:38:47.085Z,61.94
2023-03-17T19:41:15.587Z,61.92
2023-03-17T19:43:44.054Z,61.92
2023-03-17T19:46:12.874Z,63.13
2023-03-17T19:48:41.884Z,63.38
2023-03-17T19:51:10.128Z,63.91
2023-03-17T19:53:38.861Z,64.32
2023-03-17T19:56:08.717Z,64.37
2023-03-17T19:58:37.430Z,63.76
2023-03-17T20:01:06.864Z,62.88
2023-03-17T20:03:38.926Z,61.99
2023-03-17T20:06:07.073Z,61.91
2023-03-17T20:08:36.654Z,61.75
2023-03-17T20:11:05.941Z,61.21
2023-03-17T20:13:37.524Z,61.22
2023-03-17T20:16:06.898Z,60.98
2023-03-17T20:18:35.280Z,61.71
2023-03-17T20:21:05.754Z,62.28
2023-03-17T20:23:35.439Z,62.70
2023-03-17T20:26:03.594Z,63.00
2023-03-17T20:28:32.478Z,62.69
2023-03-17T20:31:04.698Z,63.01
2023-03-17T20:33:34.265Z,62.82
2023-03-17T20:36:03.129Z,62.56
2023-03-17T20:38:33.241Z,62.25
2023-03-17T20:41:09.332Z,61.80
2023-03-17T20:43:38.451Z,61.39
2023-03-17T20:46:09.269Z,60.94
2023-03-17T20:48:38.089Z,59.63
2023-03-17T20:51:07.006Z,59.18
2023-03-17T20:53:36.130Z,58.59
2023-03-17T20:56:04.715Z,57.80
2023-03-17T20:58:33.710Z,57.29
2023-03-17T21:01:01.914Z,57.51
2023-03-17T21:03:32.267Z,57.44
2023-03-17T21:06:01.305Z,56.95
2023-03-17T21:08:29.446Z,57.22
2023-03-17T21:10:57.849Z,57.59
2023-03-17T21:13:26.231Z,57.47
2023-03-17T21:15:55.477Z,57.83
2023-03-17T21:18:25.753Z,57.70
2023-03-17T21:20:55.430Z,57.83
2023-03-17T21:23:23.894Z,58.23
2023-03-17T21:25:57.137Z,58.52
2023-03-17T21:28:25.338Z,58.16
2023-03-17T21:30:53.661Z,58.47
2023-03-17T21:33:22.024Z,58.80
2023-03-17T21:35:58.205Z,58.55
2023-03-17T21:38:28.043Z,58.82
2023-03-17T21:40:56.793Z,59.16
2023-03-17T21:43:25.589Z,59.21
2023-03-17T21:45:54.106Z,59.89
2023-03-17T21:48:22.170Z,60.23
2023-03-17T21:50:50.561Z,59.85
2023-03-17T21:53:20.150Z,59.51
2023-03-17T21:55:49.667Z,59.72
2023-03-17T21:58:17.805Z,59.67
2023-03-17T22:00:47.163Z,59.71
2023-03-17T22:03:15.866Z,59.29
2023-03-17T22:05:44.302Z,59.58
2023-03-17T22:08:12.412Z,59.52
2023-03-17T22:10:42.238Z,59.64
2023-03-17T22:13:10.356Z,59.86
2023-03-17T22:15:38.809Z,60.51
2023-03-17T22:18:07.003Z,60.30
2023-03-17T22:20:35.774Z,60.43
2023-03-17T22:23:03.979Z,60.58
2023-03-17T22:25:32.381Z,60.57
2023-03-17T22:28:01.760Z,60.55
2023-03-17T22:30:30.665Z,59.86
2023-03-17T22:32:59.075Z,59.68
2023-03-17T22:35:27.537Z,59.74
2023-03-17T22:37:56.419Z,59.89
2023-03-17T22:40:24.783Z,59.83
2023-03-17T22:42:52.908Z,59.88
2023-03-17T22:45:22.906Z,59.83
2023-03-17T22:47:51.584Z,60.07
2023-03-17T22:50:20.405Z,59.83
2023-03-17T22:52:48.575Z,59.93
2023-03-17T22:55:17.090Z,60.54
2023-03-17T22:57:45.459Z,60.53
2023-03-17T23:00:16.932Z,60.70
2023-03-17T23:02:47.244Z,60.47
2023-03-17T23:05:15.924Z,60.96
2023-03-17T23:07:51.893Z,61.64
2023-03-17T23:10:22.899Z,61.86
2023-03-17T23:12:51.739Z,61.55
2023-03-17T23:15:20.801Z,61.80
2023-03-17T23:17:50.265Z,61.82
2023-03-17T23:20:18.932Z,62.05
2023-03-17T23:22:47.087Z,62.23
2023-03-17T23:25:15.471Z,62.14
2023-03-17T23:27:43.667Z,62.10
2023-03-17T23:30:13.387Z,62.84
2023-03-17T23:32:41.733Z,63.10
2023-03-17T23:35:12.629Z,62.81
2023-03-17T23:37:41.389Z,62.68
2023-03-17T23:40:11.202Z,62.88
2023-03-17T23:42:39.259Z,62.56
2023-03-17T23:45:09.157Z,62.39
2023-03-17T23:47:38.168Z,62.45
2023-03-17T23:50:07.608Z,62.13
2023-03-17T23:52:37.281Z,61.92
2023-03-17T23:55:06.903Z,62.03
2023-03-17T23:57:37.040Z,62.20
